Airport Name : Curtis Fld

Other Name : Brady

ICAO : KBBD

IATA : BBD

FAA : BBD

Latitude : 31.179289

Longitude : -99.323928

Country : United States

Local Date and Time : 7/23/2018 8:36:00 AM

 

TAF (Terminal Aerodrome Forecast)

KBBD 231120Z 2312/2412 23008KT P6SM FEW050 FM231500 24008KT P6SM SCT250 FM232100 05008KT P6SM SCT250

 

METAR (METeorological Aerodrome Report)

KBBD 231315Z AUTO 26003KT 10SM CLR 26/16 A2997 RMK AO2

KBBD 231255Z AUTO 25004KT 10SM CLR 25/16 A2997 RMK AO2

KBBD 231235Z AUTO 24005KT 10SM CLR 25/16 A2997 RMK AO2

KBBD 231215Z AUTO 24005KT 10SM CLR 24/15 A2997 RMK AO2

KBBD 231155Z AUTO 25005KT 10SM CLR 24/15 A2996 RMK AO2

KBBD 231135Z AUTO 23005KT 10SM CLR 25/15 A2996 RMK AO2

KBBD 231115Z AUTO 24005KT 10SM CLR 25/15 A2995 RMK AO2

KBBD 231055Z AUTO 22006KT 10SM CLR 25/15 A2995 RMK AO2

KBBD 231035Z AUTO 23004KT 10SM CLR 25/15 A2995 RMK AO2

KBBD 231015Z AUTO 22004KT 10SM CLR 26/15 A2995 RMK AO2

KBBD 230955Z AUTO 20005KT 10SM CLR 26/15 A2994 RMK AO2